sensor_id;sensor_type;location;lat;lon;timestamp;temperature;humidity
4056;DHT22;2043;52.184;8.690;2023-06-22T11:53:38;29.80;79.30
4056;DHT22;2043;52.184;8.690;2023-06-22T11:56:06;29.90;79.10
4056;DHT22;2043;52.184;8.690;2023-06-22T11:58:34;29.90;79.20
4056;DHT22;2043;52.184;8.690;2023-06-22T12:01:01;29.70;79.40
4056;DHT22;2043;52.184;8.690;2023-06-22T12:03:28;29.50;80.10
4056;DHT22;2043;52.184;8.690;2023-06-22T12:05:55;29.50;80.00
4056;DHT22;2043;52.184;8.690;2023-06-22T12:08:22;29.60;80.20
4056;DHT22;2043;52.184;8.690;2023-06-22T12:10:50;29.60;79.10
4056;DHT22;2043;52.184;8.690;2023-06-22T12:13:17;29.40;80.40
4056;DHT22;2043;52.184;8.690;2023-06-22T12:15:44;29.40;79.40
4056;DHT22;2043;52.184;8.690;2023-06-22T12:18:11;29.30;79.20
4056;DHT22;2043;52.184;8.690;2023-06-22T12:20:38;29.10;80.10
4056;DHT22;2043;52.184;8.690;2023-06-22T12:23:07;29.10;80.40
4056;DHT22;2043;52.184;8.690;2023-06-22T12:25:34;28.90;80.30
4056;DHT22;2043;52.184;8.690;2023-06-22T12:28:01;28.70;80.90
4056;DHT22;2043;52.184;8.690;2023-06-22T12:30:32;28.60;81.20
4056;DHT22;2043;52.184;8.690;2023-06-22T12:35:26;28.60;81.20
4056;DHT22;2043;52.184;8.690;2023-06-22T12:37:53;28.40;81.80
4056;DHT22;2043;52.184;8.690;2023-06-22T12:40:19;28.40;81.60
4056;DHT22;2043;52.184;8.690;2023-06-22T12:42:46;28.20;82.00
4056;DHT22;2043;52.184;8.690;2023-06-22T12:45:13;28.10;82.50
4056;DHT22;2043;52.184;8.690;2023-06-22T12:47:40;28.00;82.00
4056;DHT22;2043;52.184;8.690;2023-06-22T12:50:07;27.90;82.50
4056;DHT22;2043;52.184;8.690;2023-06-22T12:52:36;27.60;83.30
4056;DHT22;2043;52.184;8.690;2023-06-22T12:55:06;27.60;83.10
4056;DHT22;2043;52.184;8.690;2023-06-22T12:57:36;27.50;84.30
4056;DHT22;2043;52.184;8.690;2023-06-22T13:00:06;27.40;85.40
4056;DHT22;2043;52.184;8.690;2023-06-22T13:02:36;27.30;84.90
4056;DHT22;2043;52.184;8.690;2023-06-22T13:05:04;27.30;86.90
4056;DHT22;2043;52.184;8.690;2023-06-22T13:07:36;27.30;86.00
4056;DHT22;2043;52.184;8.690;2023-06-22T13:10:03;27.10;87.30
4056;DHT22;2043;52.184;8.690;2023-06-22T13:12:30;27.00;89.40
4056;DHT22;2043;52.184;8.690;2023-06-22T13:14:57;26.80;91.90
4056;DHT22;2043;52.184;8.690;2023-06-22T13:17:24;26.80;92.20
4056;DHT22;2043;52.184;8.690;2023-06-22T13:19:56;26.60;92.60
4056;DHT22;2043;52.184;8.690;2023-06-22T13:22:32;26.60;92.80
4056;DHT22;2043;52.184;8.690;2023-06-22T13:25:00;26.40;92.60
4056;DHT22;2043;52.184;8.690;2023-06-22T13:27:27;26.40;93.40
4056;DHT22;2043;52.184;8.690;2023-06-22T13:29:53;26.30;94.60
4056;DHT22;2043;52.184;8.690;2023-06-22T13:32:20;26.20;94.20
4056;DHT22;2043;52.184;8.690;2023-06-22T13:34:47;26.10;95.10
4056;DHT22;2043;52.184;8.690;2023-06-22T13:37:14;26.10;94.30
4056;DHT22;2043;52.184;8.690;2023-06-22T13:39:41;26.00;96.30
4056;DHT22;2043;52.184;8.690;2023-06-22T13:42:08;26.00;96.10
4056;DHT22;2043;52.184;8.690;2023-06-22T13:44:35;25.80;96.90
4056;DHT22;2043;52.184;8.690;2023-06-22T13:47:02;25.50;97.10
4056;DHT22;2043;52.184;8.690;2023-06-22T13:49:29;25.40;98.30
4056;DHT22;2043;52.184;8.690;2023-06-22T13:51:56;25.40;98.10
4056;DHT22;2043;52.184;8.690;2023-06-22T13:54:23;25.30;98.90
4056;DHT22;2043;52.184;8.690;2023-06-22T13:56:56;25.30;99.10
4056;DHT22;2043;52.184;8.690;2023-06-22T13:59:22;25.20;99.90
4056;DHT22;2043;52.184;8.690;2023-06-22T14:01:49;25.10;99.90
4056;DHT22;2043;52.184;8.690;2023-06-22T14:04:16;25.00;99.90
4056;DHT22;2043;52.184;8.690;2023-06-22T14:06:43;24.90;99.90
4056;DHT22;2043;52.184;8.690;2023-06-22T14:09:10;24.80;99.90
4056;DHT22;2043;52.184;8.690;2023-06-22T14:11:37;24.70;99.90
4056;DHT22;2043;52.184;8.690;2023-06-22T14:14:04;24.50;99.90
4056;DHT22;2043;52.184;8.690;2023-06-22T14:16:31;24.20;99.90
4056;DHT22;2043;52.184;8.690;2023-06-22T14:18:57;24.00;99.90
4056;DHT22;2043;52.184;8.690;2023-06-22T14:21:25;23.90;99.90
4056;DHT22;2043;52.184;8.690;2023-06-22T14:23:52;23.80;99.90
4056;DHT22;2043;52.184;8.690;2023-06-22T14:26:19;23.60;99.90
4056;DHT22;2043;52.184;8.690;2023-06-22T14:28:46;23.40;99.90
4056;DHT22;2043;52.184;8.690;2023-06-22T14:31:15;23.40;99.90
4056;DHT22;2043;52.184;8.690;2023-06-22T14:33:46;23.20;99.90
4056;DHT22;2043;52.184;8.690;2023-06-22T14:36:14;23.00;99.90
4056;DHT22;2043;52.184;8.690;2023-06-22T14:38:42;22.60;99.90
4056;DHT22;2043;52.184;8.690;2023-06-22T14:41:09;22.20;99.90
4056;DHT22;2043;52.184;8.690;2023-06-22T14:43:44;22.30;99.90
4056;DHT22;2043;52.184;8.690;2023-06-22T14:46:11;22.20;99.90
4056;DHT22;2043;52.184;8.690;2023-06-22T14:48:38;22.30;99.90
4056;DHT22;2043;52.184;8.690;2023-06-22T14:51:05;22.00;99.90
4056;DHT22;2043;52.184;8.690;2023-06-22T14:53:44;22.10;99.90
4056;DHT22;2043;52.184;8.690;2023-06-22T14:56:11;22.10;99.90
4056;DHT22;2043;52.184;8.690;2023-06-22T14:58:40;22.10;99.90
4056;DHT22;2043;52.184;8.690;2023-06-22T15:01:09;22.10;99.90
4056;DHT22;2043;52.184;8.690;2023-06-22T15:03:37;22.10;99.90
4056;DHT22;2043;52.184;8.690;2023-06-22T15:06:04;22.10;99.90
4056;DHT22;2043;52.184;8.690;2023-06-22T15:08:31;22.20;99.90
4056;DHT22;2043;52.184;8.690;2023-06-22T15:11:01;22.20;99.90
4056;DHT22;2043;52.184;8.690;2023-06-22T15:13:30;22.20;99.90
4056;DHT22;2043;52.184;8.690;2023-06-22T15:16:01;22.40;99.90
4056;DHT22;2043;52.184;8.690;2023-06-22T15:18:28;22.50;99.90
4056;DHT22;2043;52.184;8.690;2023-06-22T15:20:55;22.50;99.90
4056;DHT22;2043;52.184;8.690;2023-06-22T15:23:21;22.60;99.90
4056;DHT22;2043;52.184;8.690;2023-06-22T15:28:15;22.70;99.90
4056;DHT22;2043;52.184;8.690;2023-06-22T15:30:43;22.90;99.90
4056;DHT22;2043;52.184;8.690;2023-06-22T15:33:14;22.90;99.90
4056;DHT22;2043;52.184;8.690;2023-06-22T15:35:41;23.00;99.90
4056;DHT22;2043;52.184;8.690;2023-06-22T15:38:07;23.00;99.90
4056;DHT22;2043;52.184;8.690;2023-06-22T15:40:34;23.10;99.90
4056;DHT22;2043;52.184;8.690;2023-06-22T15:43:01;23.20;99.90
4056;DHT22;2043;52.184;8.690;2023-06-22T15:45:28;23.50;99.90
4056;DHT22;2043;52.184;8.690;2023-06-22T15:47:55;23.50;99.90
4056;DHT22;2043;52.184;8.690;2023-06-22T15:50:22;23.50;99.90
4056;DHT22;2043;52.184;8.690;2023-06-22T15:55:18;23.60;99.90
4056;DHT22;2043;52.184;8.690;2023-06-22T15:57:46;23.60;99.90
4056;DHT22;2043;52.184;8.690;2023-06-22T16:00:15;23.50;99.90
4056;DHT22;2043;52.184;8.690;2023-06-22T16:02:46;23.50;99.90
4056;DHT22;2043;52.184;8.690;2023-06-22T16:05:13;23.80;99.90
4056;DHT22;2043;52.184;8.690;2023-06-22T16:07:43;23.90;99.90
4056;DHT22;2043;52.184;8.690;2023-06-22T16:10:10;23.80;99.90
4056;DHT22;2043;52.184;8.690;2023-06-22T16:12:37;23.80;99.90
4056;DHT22;2043;52.184;8.690;2023-06-22T16:15:08;23.90;99.90
4056;DHT22;2043;52.184;8.690;2023-06-22T16:17:35;24.10;99.90
4056;DHT22;2043;52.184;8.690;2023-06-22T16:20:06;24.00;99.90
4056;DHT22;2043;52.184;8.690;2023-06-22T16:22:33;24.00;99.90
4056;DHT22;2043;52.184;8.690;2023-06-22T16:25:00;24.00;99.90
4056;DHT22;2043;52.184;8.690;2023-06-22T16:27:30;24.00;99.90
4056;DHT22;2043;52.184;8.690;2023-06-22T16:29:58;23.80;99.90
4056;DHT22;2043;52.184;8.690;2023-06-22T16:32:25;23.70;99.90
4056;DHT22;2043;52.184;8.690;2023-06-22T16:34:52;23.60;99.90
4056;DHT22;2043;52.184;8.690;2023-06-22T16:37:20;23.50;99.90
4056;DHT22;2043;52.184;8.690;2023-06-22T16:42:14;23.30;99.90
4056;DHT22;2043;52.184;8.690;2023-06-22T16:44:41;23.40;99.90
4056;DHT22;2043;52.184;8.690;2023-06-22T16:47:08;23.40;99.90
4056;DHT22;2043;52.184;8.690;2023-06-22T16:49:34;23.40;99.90
4056;DHT22;2043;52.184;8.690;2023-06-22T16:52:07;23.30;99.90
4056;DHT22;2043;52.184;8.690;2023-06-22T16:54:35;23.10;99.90
4056;DHT22;2043;52.184;8.690;2023-06-22T16:57:07;23.00;99.90
4056;DHT22;2043;52.184;8.690;2023-06-22T16:59:34;22.90;99.90
4056;DHT22;2043;52.184;8.690;2023-06-22T17:02:01;22.90;99.90
4056;DHT22;2043;52.184;8.690;2023-06-22T17:04:30;22.80;99.90
4056;DHT22;2043;52.184;8.690;2023-06-22T17:07:13;22.80;99.90
4056;DHT22;2043;52.184;8.690;2023-06-22T17:09:42;22.70;99.90
4056;DHT22;2043;52.184;8.690;2023-06-22T17:12:09;22.70;99.90
4056;DHT22;2043;52.184;8.690;2023-06-22T17:17:06;22.60;99.90
4056;DHT22;2043;52.184;8.690;2023-06-22T17:19:33;22.70;99.90
4056;DHT22;2043;52.184;8.690;2023-06-22T17:22:00;22.60;99.90
4056;DHT22;2043;52.184;8.690;2023-06-22T17:24:26;22.60;99.90
4056;DHT22;2043;52.184;8.690;2023-06-22T17:26:55;22.70;99.90
4056;DHT22;2043;52.184;8.690;2023-06-22T17:29:28;22.70;99.90
4056;DHT22;2043;52.184;8.690;2023-06-22T17:31:58;22.70;99.90
4056;DHT22;2043;52.184;8.690;2023-06-22T17:34:29;22.70;99.90
4056;DHT22;2043;52.184;8.690;2023-06-22T17:36:57;22.60;99.90
4056;DHT22;2043;52.184;8.690;2023-06-22T17:39:26;22.60;99.90
4056;DHT22;2043;52.184;8.690;2023-06-22T17:41:55;22.50;99.90
4056;DHT22;2043;52.184;8.690;2023-06-22T17:44:27;22.40;99.90
4056;DHT22;2043;52.184;8.690;2023-06-22T17:46:56;22.50;99.90
4056;DHT22;2043;52.184;8.690;2023-06-22T17:49:27;22.40;99.90
4056;DHT22;2043;52.184;8.690;2023-06-22T17:51:55;22.30;99.90
4056;DHT22;2043;52.184;8.690;2023-06-22T17:54:22;22.30;99.90
4056;DHT22;2043;52.184;8.690;2023-06-22T17:57:16;22.20;99.90
4056;DHT22;2043;52.184;8.690;2023-06-22T17:59:50;21.90;99.90
4056;DHT22;2043;52.184;8.690;2023-06-22T18:02:23;21.90;99.90
4056;DHT22;2043;52.184;8.690;2023-06-22T18:07:38;21.60;99.90
4056;DHT22;2043;52.184;8.690;2023-06-22T18:10:06;21.60;99.90
4056;DHT22;2043;52.184;8.690;2023-06-22T18:12:35;21.50;99.90
4056;DHT22;2043;52.184;8.690;2023-06-22T18:15:03;21.50;99.90
4056;DHT22;2043;52.184;8.690;2023-06-22T18:17:30;21.40;99.90
4056;DHT22;2043;52.184;8.690;2023-06-22T18:19:57;21.40;99.90
4056;DHT22;2043;52.184;8.690;2023-06-22T18:22:27;21.30;99.90
4056;DHT22;2043;52.184;8.690;2023-06-22T18:24:56;21.40;99.90
4056;DHT22;2043;52.184;8.690;2023-06-22T18:27:24;21.40;99.90
4056;DHT22;2043;52.184;8.690;2023-06-22T18:29:55;21.40;99.90
4056;DHT22;2043;52.184;8.690;2023-06-22T18:32:22;21.50;99.90
4056;DHT22;2043;52.184;8.690;2023-06-22T18:34:49;21.50;99.90
4056;DHT22;2043;52.184;8.690;2023-06-22T18:37:18;21.40;99.90
4056;DHT22;2043;52.184;8.690;2023-06-22T18:39:49;21.40;99.90
4056;DHT22;2043;52.184;8.690;2023-06-22T18:42:17;21.40;99.90
4056;DHT22;2043;52.184;8.690;2023-06-22T18:44:43;21.30;99.90
4056;DHT22;2043;52.184;8.690;2023-06-22T18:47:10;21.10;99.90
4056;DHT22;2043;52.184;8.690;2023-06-22T18:57:25;21.10;99.90
4056;DHT22;2043;52.184;8.690;2023-06-22T19:00:08;21.10;99.90
4056;DHT22;2043;52.184;8.690;2023-06-22T19:02:53;21.10;99.90
4056;DHT22;2043;52.184;8.690;2023-06-22T19:05:40;21.10;99.90
4056;DHT22;2043;52.184;8.690;2023-06-22T19:08:08;21.10;99.90
4056;DHT22;2043;52.184;8.690;2023-06-22T19:10:41;20.90;99.90
4056;DHT22;2043;52.184;8.690;2023-06-22T19:16:01;20.90;99.90
4056;DHT22;2043;52.184;8.690;2023-06-22T19:18:32;20.90;99.90
4056;DHT22;2043;52.184;8.690;2023-06-22T19:21:02;20.80;99.90
4056;DHT22;2043;52.184;8.690;2023-06-22T19:23:31;20.90;99.90
4056;DHT22;2043;52.184;8.690;2023-06-22T19:26:02;20.90;99.90
4056;DHT22;2043;52.184;8.690;2023-06-22T19:28:30;20.70;99.90
4056;DHT22;2043;52.184;8.690;2023-06-22T19:31:01;20.70;99.90
4056;DHT22;2043;52.184;8.690;2023-06-22T19:33:29;20.60;99.90
4056;DHT22;2043;52.184;8.690;2023-06-22T19:35:58;20.70;99.90
4056;DHT22;2043;52.184;8.690;2023-06-22T19:38:26;20.70;99.90
4056;DHT22;2043;52.184;8.690;2023-06-22T19:40:54;20.80;99.90
4056;DHT22;2043;52.184;8.690;2023-06-22T19:43:21;20.80;99.90
4056;DHT22;2043;52.184;8.690;2023-06-22T19:45:48;20.80;99.90
4056;DHT22;2043;52.184;8.690;2023-06-22T19:48:15;20.70;99.90
4056;DHT22;2043;52.184;8.690;2023-06-22T19:50:42;20.60;99.90
4056;DHT22;2043;52.184;8.690;2023-06-22T19:53:11;20.60;99.90
4056;DHT22;2043;52.184;8.690;2023-06-22T19:55:44;20.60;99.90
4056;DHT22;2043;52.184;8.690;2023-06-22T19:58:13;20.60;99.90
4056;DHT22;2043;52.184;8.690;2023-06-22T20:00:40;20.60;99.90
4056;DHT22;2043;52.184;8.690;2023-06-22T20:03:16;20.50;99.90
4056;DHT22;2043;52.184;8.690;2023-06-22T20:05:44;20.50;99.90
4056;DHT22;2043;52.184;8.690;2023-06-22T20:08:15;20.50;99.90
4056;DHT22;2043;52.184;8.690;2023-06-22T20:10:43;20.60;99.90
4056;DHT22;2043;52.184;8.690;2023-06-22T20:13:11;20.60;99.90
4056;DHT22;2043;52.184;8.690;2023-06-22T20:15:43;20.60;99.90
4056;DHT22;2043;52.184;8.690;2023-06-22T20:18:11;20.70;99.90
4056;DHT22;2043;52.184;8.690;2023-06-22T20:20:42;20.60;99.90
4056;DHT22;2043;52.184;8.690;2023-06-22T20:23:10;20.70;99.90
4056;DHT22;2043;52.184;8.690;2023-06-22T20:25:38;20.70;99.90
4056;DHT22;2043;52.184;8.690;2023-06-22T20:28:15;20.60;99.90
4056;DHT22;2043;52.184;8.690;2023-06-22T20:31:06;20.60;99.90
4056;DHT22;2043;52.184;8.690;2023-06-22T20:33:33;20.60;99.90
4056;DHT22;2043;52.184;8.690;2023-06-22T20:36:00;20.60;99.90
4056;DHT22;2043;52.184;8.690;2023-06-22T20:38:27;20.60;99.90
4056;DHT22;2043;52.184;8.690;2023-06-22T20:40:55;20.70;99.90
4056;DHT22;2043;52.184;8.690;2023-06-22T20:43:22;20.70;99.90
4056;DHT22;2043;52.184;8.690;2023-06-22T20:45:53;20.70;99.90
4056;DHT22;2043;52.184;8.690;2023-06-22T20:48:21;20.80;99.90
4056;DHT22;2043;52.184;8.690;2023-06-22T20:51:04;20.80;99.90
4056;DHT22;2043;52.184;8.690;2023-06-22T20:53:30;20.80;99.90
4056;DHT22;2043;52.184;8.690;2023-06-22T20:55:58;20.80;99.90
4056;DHT22;2043;52.184;8.690;2023-06-22T20:58:25;20.80;99.90
4056;DHT22;2043;52.184;8.690;2023-06-22T21:00:51;20.70;99.90
4056;DHT22;2043;52.184;8.690;2023-06-22T21:03:18;20.80;99.90
4056;DHT22;2043;52.184;8.690;2023-06-22T21:05:45;20.70;99.90
4056;DHT22;2043;52.184;8.690;2023-06-22T21:08:13;20.70;99.90
4056;DHT22;2043;52.184;8.690;2023-06-22T21:10:39;20.60;99.90
4056;DHT22;2043;52.184;8.690;2023-06-22T21:13:07;20.60;99.90
4056;DHT22;2043;52.184;8.690;2023-06-22T21:15:34;20.50;99.90
4056;DHT22;2043;52.184;8.690;2023-06-22T21:18:01;20.50;99.90
4056;DHT22;2043;52.184;8.690;2023-06-22T21:20:28;20.50;99.90
4056;DHT22;2043;52.184;8.690;2023-06-22T21:22:54;20.50;99.90
4056;DHT22;2043;52.184;8.690;2023-06-22T21:25:21;20.40;99.90
4056;DHT22;2043;52.184;8.690;2023-06-22T21:27:48;20.40;99.90
4056;DHT22;2043;52.184;8.690;2023-06-22T21:30:15;20.40;99.90
4056;DHT22;2043;52.184;8.690;2023-06-22T21:32:42;20.50;99.90
4056;DHT22;2043;52.184;8.690;2023-06-22T21:35:09;20.40;99.90
4056;DHT22;2043;52.184;8.690;2023-06-22T21:40:06;20.50;99.90
4056;DHT22;2043;52.184;8.690;2023-06-22T21:42:33;20.50;99.90
4056;DHT22;2043;52.184;8.690;2023-06-22T21:44:59;20.40;99.90
4056;DHT22;2043;52.184;8.690;2023-06-22T21:47:26;20.40;99.90
4056;DHT22;2043;52.184;8.690;2023-06-22T21:49:53;20.50;99.90
4056;DHT22;2043;52.184;8.690;2023-06-22T21:52:20;20.40;99.90
4056;DHT22;2043;52.184;8.690;2023-06-22T21:54:47;20.40;99.90
4056;DHT22;2043;52.184;8.690;2023-06-22T21:57:14;20.30;99.90
4056;DHT22;2043;52.184;8.690;2023-06-22T21:59:41;20.40;99.90
4056;DHT22;2043;52.184;8.690;2023-06-22T22:02:07;20.40;99.90
4056;DHT22;2043;52.184;8.690;2023-06-22T22:04:34;20.40;99.90
4056;DHT22;2043;52.184;8.690;2023-06-22T22:07:02;20.50;99.90
4056;DHT22;2043;52.184;8.690;2023-06-22T22:09:31;20.30;99.90
4056;DHT22;2043;52.184;8.690;2023-06-22T22:11:58;20.30;99.90
4056;DHT22;2043;52.184;8.690;2023-06-22T22:14:25;20.20;99.90
4056;DHT22;2043;52.184;8.690;2023-06-22T22:16:51;20.30;99.90
4056;DHT22;2043;52.184;8.690;2023-06-22T22:19:18;20.30;99.90
4056;DHT22;2043;52.184;8.690;2023-06-22T22:21:47;20.40;99.90
4056;DHT22;2043;52.184;8.690;2023-06-22T22:24:14;20.20;99.90
4056;DHT22;2043;52.184;8.690;2023-06-22T22:26:40;20.10;99.90
4056;DHT22;2043;52.184;8.690;2023-06-22T22:29:07;20.20;99.90
4056;DHT22;2043;52.184;8.690;2023-06-22T22:31:34;20.30;99.90
4056;DHT22;2043;52.184;8.690;2023-06-22T22:34:06;20.20;99.90
4056;DHT22;2043;52.184;8.690;2023-06-22T22:36:33;20.20;99.90
4056;DHT22;2043;52.184;8.690;2023-06-22T22:39:00;20.10;99.90
4056;DHT22;2043;52.184;8.690;2023-06-22T22:41:27;20.10;99.90
4056;DHT22;2043;52.184;8.690;2023-06-22T22:43:57;20.20;99.90
4056;DHT22;2043;52.184;8.690;2023-06-22T22:46:25;20.20;99.90
4056;DHT22;2043;52.184;8.690;2023-06-22T22:48:52;20.20;99.90
4056;DHT22;2043;52.184;8.690;2023-06-22T22:51:19;20.20;99.90
4056;DHT22;2043;52.184;8.690;2023-06-22T22:53:46;20.20;99.90
4056;DHT22;2043;52.184;8.690;2023-06-22T22:56:12;20.10;99.90
4056;DHT22;2043;52.184;8.690;2023-06-22T22:58:39;20.00;99.90
4056;DHT22;2043;52.184;8.690;2023-06-22T23:01:06;20.20;99.90
4056;DHT22;2043;52.184;8.690;2023-06-22T23:03:33;20.00;99.90
4056;DHT22;2043;52.184;8.690;2023-06-22T23:06:01;20.00;99.90
4056;DHT22;2043;52.184;8.690;2023-06-22T23:08:28;20.20;99.90
4056;DHT22;2043;52.184;8.690;2023-06-22T23:10:55;20.20;99.90
4056;DHT22;2043;52.184;8.690;2023-06-22T23:13:22;20.20;99.90
4056;DHT22;2043;52.184;8.690;2023-06-22T23:18:17;20.00;99.90
4056;DHT22;2043;52.184;8.690;2023-06-22T23:20:45;20.00;99.90
4056;DHT22;2043;52.184;8.690;2023-06-22T23:23:12;19.80;99.90
4056;DHT22;2043;52.184;8.690;2023-06-22T23:25:39;19.90;99.90
4056;DHT22;2043;52.184;8.690;2023-06-22T23:28:06;19.90;99.90
4056;DHT22;2043;52.184;8.690;2023-06-22T23:30:34;20.00;99.90
4056;DHT22;2043;52.184;8.690;2023-06-22T23:33:01;19.70;99.90
4056;DHT22;2043;52.184;8.690;2023-06-22T23:35:27;19.70;99.90
4056;DHT22;2043;52.184;8.690;2023-06-22T23:37:55;19.70;99.90
4056;DHT22;2043;52.184;8.690;2023-06-22T23:40:22;19.80;99.90
4056;DHT22;2043;52.184;8.690;2023-06-22T23:42:48;19.70;99.90
4056;DHT22;2043;52.184;8.690;2023-06-22T23:45:19;19.60;99.90
4056;DHT22;2043;52.184;8.690;2023-06-22T23:47:48;19.60;99.90
4056;DHT22;2043;52.184;8.690;2023-06-22T23:50:15;19.60;99.90
4056;DHT22;2043;52.184;8.690;2023-06-22T23:52:43;19.50;99.90
4056;DHT22;2043;52.184;8.690;2023-06-22T23:55:18;19.50;99.90
4056;DHT22;2043;52.184;8.690;2023-06-22T23:57:45;19.60;99.90
